Time;durP1;ratioP1;P1;durP2;ratioP2;P2;SDS_P1;SDS_P2;PMS_P1;PMS_P2;Temp;Humidity;BMP_temperature;BMP_pressure;BME280_temperature;BME280_humidity;BME280_pressure;Samples;Min_cycle;Max_cycle;Signal;HPM_P1;HPM_P2
2023/03/06 00:01:04;;;;;;;3.50;2.00;;;5.90;89.90;;;;;;5114141;28;20027;-74
2023/03/06 00:03:31;;;;;;;6.82;2.40;;;5.90;89.70;;;;;;5114226;28;20042;-74
2023/03/06 00:05:57;;;;;;;4.35;2.60;;;5.90;89.70;;;;;;5114206;28;20026;-74
2023/03/06 00:08:23;;;;;;;4.68;2.50;;;5.90;90.00;;;;;;5112977;28;20119;-73
2023/03/06 00:10:49;;;;;;;5.32;2.80;;;5.80;90.00;;;;;;5113893;28;20016;-73
2023/03/06 00:13:18;;;;;;;5.18;2.33;;;5.80;90.00;;;;;;5113920;28;20028;-74
2023/03/06 00:15:43;;;;;;;7.53;2.80;;;5.80;90.00;;;;;;5113912;28;20038;-74
2023/03/06 00:18:09;;;;;;;4.93;3.00;;;5.80;90.10;;;;;;5113377;28;20036;-74
2023/03/06 00:20:37;;;;;;;4.97;3.00;;;5.80;90.20;;;;;;5113858;28;20075;-74
2023/03/06 00:23:03;;;;;;;4.82;2.63;;;5.70;90.30;;;;;;5113698;28;20058;-74
2023/03/06 00:25:28;;;;;;;4.90;3.20;;;5.70;90.30;;;;;;5113772;28;20476;-74
2023/03/06 00:27:54;;;;;;;5.00;2.88;;;5.70;90.20;;;;;;5113750;28;20050;-74
2023/03/06 00:30:22;;;;;;;7.88;3.42;;;5.70;90.20;;;;;;5113684;28;20039;-74
2023/03/06 00:32:49;;;;;;;6.28;3.30;;;5.70;90.40;;;;;;5112521;28;20020;-74
2023/03/06 00:35:15;;;;;;;8.10;3.65;;;5.70;90.30;;;;;;5112555;28;20051;-74
2023/03/06 00:37:41;;;;;;;7.80;3.22;;;5.70;90.40;;;;;;5113641;28;20024;-74
2023/03/06 00:40:14;;;;;;;6.40;3.65;;;5.60;90.40;;;;;;5113618;28;20024;-74
2023/03/06 00:42:40;;;;;;;6.63;3.53;;;5.70;90.40;;;;;;5113603;28;20050;-74
2023/03/06 00:45:06;;;;;;;7.47;3.53;;;5.70;90.40;;;;;;5113543;28;20102;-74
2023/03/06 00:47:32;;;;;;;7.35;3.30;;;5.60;90.50;;;;;;5112559;28;20055;-74
2023/03/06 00:49:57;;;;;;;7.40;3.83;;;5.70;90.40;;;;;;5112514;28;20024;-74
2023/03/06 00:52:23;;;;;;;5.82;3.65;;;5.70;90.40;;;;;;5113405;28;20040;-73
2023/03/06 00:54:49;;;;;;;7.00;3.72;;;5.60;90.50;;;;;;5113566;28;20039;-74
2023/03/06 00:57:14;;;;;;;8.07;4.03;;;5.60;90.40;;;;;;5112380;28;20048;-74
2023/03/06 00:59:40;;;;;;;8.32;3.90;;;5.60;90.50;;;;;;5113426;28;20076;-74
2023/03/06 01:02:06;;;;;;;8.13;4.45;;;5.60;90.40;;;;;;5113386;28;20044;-74
2023/03/06 01:04:32;;;;;;;7.03;3.90;;;5.60;90.40;;;;;;5113364;28;20099;-74
2023/03/06 01:06:58;;;;;;;8.43;4.10;;;5.50;90.30;;;;;;5113507;28;20049;-74
2023/03/06 01:09:23;;;;;;;8.00;4.07;;;5.50;90.40;;;;;;5113233;28;20032;-74
2023/03/06 01:11:49;;;;;;;9.85;4.20;;;5.40;90.40;;;;;;5112413;28;20032;-74
2023/03/06 01:14:17;;;;;;;8.25;4.05;;;5.40;90.50;;;;;;5113285;28;20028;-74
2023/03/06 01:16:43;;;;;;;8.43;4.78;;;5.40;90.50;;;;;;5113275;28;20051;-74
2023/03/06 01:19:09;;;;;;;10.35;4.68;;;5.40;90.50;;;;;;5113285;28;20016;-74
2023/03/06 01:21:34;;;;;;;7.85;3.83;;;5.40;90.50;;;;;;5113328;28;20028;-74
2023/03/06 01:24:00;;;;;;;7.90;4.45;;;5.40;90.50;;;;;;5113184;28;20032;-74
2023/03/06 01:26:25;;;;;;;11.07;4.38;;;5.40;90.50;;;;;;5113156;28;20020;-74
2023/03/06 01:28:51;;;;;;;8.30;4.03;;;5.40;90.50;;;;;;5112098;28;20036;-74
2023/03/06 01:31:17;;;;;;;7.75;4.05;;;5.30;90.50;;;;;;5114757;28;20048;-74
2023/03/06 01:33:42;;;;;;;7.88;4.32;;;5.30;90.50;;;;;;5116816;28;20079;-74
2023/03/06 01:36:11;;;;;;;8.75;4.57;;;5.40;90.50;;;;;;5099034;28;20032;-74
2023/03/06 01:38:37;;;;;;;8.90;4.35;;;5.30;90.60;;;;;;5115842;28;20031;-74
2023/03/06 01:41:03;;;;;;;10.32;4.45;;;5.30;90.60;;;;;;5116814;28;20016;-74
2023/03/06 01:43:37;;;;;;;6.90;3.60;;;5.40;90.60;;;;;;5116798;28;20447;-74
2023/03/06 01:46:22;;;;;;;4.95;2.78;;;5.40;90.80;;;;;;5116779;28;20024;-74
2023/03/06 01:48:52;;;;;;;7.18;3.53;;;5.40;90.40;;;;;;5116722;28;20053;-74
2023/03/06 01:51:17;;;;;;;5.93;3.20;;;5.40;90.40;;;;;;5115767;28;20084;-74
2023/03/06 01:53:45;;;;;;;4.95;2.60;;;5.40;90.50;;;;;;5116572;28;20032;-73
2023/03/06 01:56:12;;;;;;;7.07;3.30;;;5.30;90.40;;;;;;5115675;28;20436;-74
2023/03/06 01:58:38;;;;;;;4.50;2.63;;;5.30;90.30;;;;;;5116635;28;20020;-74
2023/03/06 02:01:04;;;;;;;5.15;3.00;;;5.20;90.50;;;;;;5116450;28;20020;-74
2023/03/06 02:03:31;;;;;;;5.13;3.10;;;5.20;90.50;;;;;;5116381;28;20032;-74
2023/03/06 02:05:58;;;;;;;7.97;3.22;;;5.10;90.50;;;;;;5116344;28;20092;-74
2023/03/06 02:08:25;;;;;;;6.07;3.10;;;5.20;90.60;;;;;;5116215;28;20106;-74
2023/03/06 02:11:14;;;;;;;5.45;3.20;;;5.10;90.60;;;;;;5115279;28;20032;-74
2023/03/06 02:13:40;;;;;;;5.80;2.92;;;5.10;90.60;;;;;;5116382;28;20038;-74
2023/03/06 02:16:08;;;;;;;5.60;2.95;;;5.10;90.60;;;;;;5116161;28;20054;-74
2023/03/06 02:18:34;;;;;;;7.60;3.15;;;5.00;90.60;;;;;;5116082;28;20075;-74
2023/03/06 02:21:05;;;;;;;6.40;3.08;;;5.10;90.60;;;;;;5115179;28;20021;-74
2023/03/06 02:23:55;;;;;;;6.32;3.17;;;4.90;91.00;;;;;;5116050;28;20035;-74
2023/03/06 02:26:21;;;;;;;7.57;3.20;;;4.90;91.10;;;;;;5116157;28;20057;-74
2023/03/06 02:28:47;;;;;;;5.18;3.22;;;4.90;91.00;;;;;;5115916;28;20028;-74
2023/03/06 02:31:23;;;;;;;8.07;3.47;;;4.90;91.00;;;;;;5115783;28;20045;-74
2023/03/06 02:34:26;;;;;;;6.45;3.03;;;4.90;91.10;;;;;;5115674;28;20058;-74
2023/03/06 02:37:07;;;;;;;7.30;3.15;;;4.80;91.20;;;;;;5115763;28;20020;-74
2023/03/06 02:39:37;;;;;;;6.88;3.30;;;4.80;91.30;;;;;;5115755;28;20027;-73
2023/03/06 02:42:03;;;;;;;8.23;3.63;;;4.70;91.40;;;;;;5114331;28;20040;-74
2023/03/06 02:44:29;;;;;;;7.60;3.58;;;4.70;91.60;;;;;;5115678;28;20107;-74
2023/03/06 02:46:55;;;;;;;9.10;3.50;;;4.70;91.50;;;;;;5115555;28;20475;-73
2023/03/06 02:49:20;;;;;;;7.50;3.90;;;4.70;91.50;;;;;;5115619;28;20053;-74
2023/03/06 02:51:46;;;;;;;8.73;3.90;;;4.70;91.50;;;;;;5115426;28;20039;-74
2023/03/06 02:54:12;;;;;;;8.95;3.95;;;4.70;91.50;;;;;;5115437;28;20028;-74
2023/03/06 02:56:37;;;;;;;8.60;4.32;;;4.70;91.50;;;;;;5115340;28;20044;-74
2023/03/06 02:59:03;;;;;;;9.27;4.13;;;4.70;91.50;;;;;;5114416;28;20032;-74
2023/03/06 03:01:28;;;;;;;8.25;4.07;;;4.70;91.70;;;;;;5114437;28;20024;-74
2023/03/06 03:03:54;;;;;;;7.55;3.78;;;4.60;91.60;;;;;;5115238;28;20016;-74
2023/03/06 03:06:20;;;;;;;8.18;4.22;;;4.60;91.70;;;;;;5115178;28;20028;-74
2023/03/06 03:08:45;;;;;;;9.65;3.92;;;4.60;91.70;;;;;;5115069;28;20063;-74
2023/03/06 03:11:11;;;;;;;7.32;4.05;;;4.60;91.60;;;;;;5115039;28;20040;-74
2023/03/06 03:13:37;;;;;;;10.07;4.25;;;4.60;91.60;;;;;;5114069;28;20047;-74
2023/03/06 03:16:08;;;;;;;9.32;4.18;;;4.60;91.50;;;;;;5114977;28;20024;-74
2023/03/06 03:18:34;;;;;;;8.57;4.38;;;4.70;91.50;;;;;;5113971;28;20028;-74
2023/03/06 03:21:00;;;;;;;7.78;3.65;;;4.70;91.40;;;;;;5114935;28;20020;-74
2023/03/06 03:23:26;;;;;;;12.18;4.40;;;4.70;91.40;;;;;;5114827;28;20028;-74
2023/03/06 03:25:52;;;;;;;9.93;4.78;;;4.60;91.20;;;;;;5114834;28;20032;-74
2023/03/06 03:28:18;;;;;;;7.97;3.97;;;4.60;91.10;;;;;;5114701;28;20031;-74
2023/03/06 03:30:44;;;;;;;10.80;4.78;;;4.60;91.10;;;;;;5114683;28;20035;-74
2023/03/06 03:33:10;;;;;;;10.05;3.88;;;4.60;91.10;;;;;;5114391;28;20050;-74
2023/03/06 03:35:36;;;;;;;9.10;4.13;;;4.50;91.20;;;;;;5114822;28;20031;-74
2023/03/06 03:38:02;;;;;;;7.43;3.92;;;4.50;91.30;;;;;;5113602;28;20055;-74
2023/03/06 03:40:28;;;;;;;9.13;4.05;;;4.40;91.40;;;;;;5113757;28;20016;-74
2023/03/06 03:42:53;;;;;;;7.28;3.58;;;4.40;91.40;;;;;;5113518;28;20036;-74
2023/03/06 03:45:19;;;;;;;9.98;4.18;;;4.40;91.60;;;;;;5114447;28;20028;-74
2023/03/06 03:47:45;;;;;;;9.02;4.13;;;4.30;91.60;;;;;;5114389;28;20032;-74
2023/03/06 03:50:11;;;;;;;9.20;3.92;;;4.30;91.70;;;;;;5113323;28;20024;-74
2023/03/06 03:52:37;;;;;;;10.02;3.88;;;4.30;91.70;;;;;;5113410;28;20058;-74
2023/03/06 03:55:04;;;;;;;9.65;4.03;;;4.30;91.60;;;;;;5114253;28;20020;-74
2023/03/06 03:57:29;;;;;;;9.45;4.53;;;4.20;91.60;;;;;;5113282;28;20035;-74
2023/03/06 03:59:55;;;;;;;14.18;4.72;;;4.20;91.50;;;;;;5114199;28;20051;-74
2023/03/06 04:02:21;;;;;;;9.63;4.47;;;4.20;91.50;;;;;;5114062;28;20028;-74
2023/03/06 04:04:47;;;;;;;11.23;4.78;;;4.30;91.50;;;;;;5114122;28;20028;-74
2023/03/06 04:07:13;;;;;;;9.07;3.83;;;4.20;91.40;;;;;;5114052;28;20042;-74
2023/03/06 04:09:38;;;;;;;12.73;4.35;;;4.20;91.50;;;;;;5113944;28;20047;-74
2023/03/06 04:12:05;;;;;;;8.77;4.57;;;4.20;91.50;;;;;;5112874;28;20032;-74
2023/03/06 04:14:31;;;;;;;11.02;4.38;;;4.20;91.40;;;;;;5113479;28;20026;-74
2023/03/06 04:16:56;;;;;;;9.45;4.03;;;4.20;91.50;;;;;;5112808;28;20044;-74
2023/03/06 04:19:22;;;;;;;11.20;4.75;;;4.10;91.50;;;;;;5113902;28;20031;-74
2023/03/06 04:21:48;;;;;;;13.15;5.15;;;4.10;91.50;;;;;;5113801;28;20028;-74
2023/03/06 04:24:13;;;;;;;10.60;4.68;;;4.20;91.50;;;;;;5113789;28;20043;-73
2023/03/06 04:26:39;;;;;;;11.38;4.72;;;4.10;91.60;;;;;;5113748;28;20031;-73
2023/03/06 04:29:05;;;;;;;8.90;3.97;;;4.10;91.70;;;;;;5113733;28;20028;-73
2023/03/06 04:31:30;;;;;;;10.20;4.32;;;4.10;91.70;;;;;;5112591;28;20028;-74
2023/03/06 04:33:56;;;;;;;10.60;4.53;;;4.10;91.60;;;;;;5113461;28;20107;-74
2023/03/06 04:36:28;;;;;;;8.10;3.75;;;4.00;91.70;;;;;;5112742;28;20020;-74
2023/03/06 04:38:54;;;;;;;12.68;4.60;;;3.90;92.10;;;;;;5113622;28;20036;-74
2023/03/06 04:41:19;;;;;;;8.70;4.20;;;3.90;92.20;;;;;;5113603;28;20503;-74
2023/03/06 04:43:45;;;;;;;12.43;4.70;;;3.90;92.20;;;;;;5113554;28;20024;-74
2023/03/06 04:46:11;;;;;;;9.20;4.30;;;3.90;92.10;;;;;;5095752;28;20039;-74
2023/03/06 04:48:36;;;;;;;10.25;4.88;;;3.90;92.10;;;;;;5113500;28;20024;-74
2023/03/06 04:51:02;;;;;;;8.93;3.83;;;3.90;92.40;;;;;;5112472;28;20103;-74
2023/03/06 04:53:28;;;;;;;8.63;4.55;;;3.90;92.20;;;;;;5113443;28;20467;-74
2023/03/06 04:55:53;;;;;;;10.93;4.35;;;3.90;92.20;;;;;;5112554;28;20051;-74
2023/03/06 04:58:19;;;;;;;8.05;3.95;;;3.90;92.30;;;;;;5113482;28;20032;-74
2023/03/06 05:00:45;;;;;;;10.60;4.28;;;3.90;92.30;;;;;;5112423;28;20054;-74
2023/03/06 05:03:13;;;;;;;7.07;3.55;;;3.90;92.50;;;;;;5113385;28;20032;-74
2023/03/06 05:05:38;;;;;;;10.93;4.30;;;3.90;92.50;;;;;;5116913;28;20016;-74
2023/03/06 05:08:04;;;;;;;10.30;4.10;;;3.90;92.50;;;;;;5117442;28;20024;-74
2023/03/06 05:10:30;;;;;;;10.25;4.45;;;3.90;92.60;;;;;;5117471;28;20099;-74
2023/03/06 05:12:55;;;;;;;11.73;4.80;;;3.90;92.70;;;;;;5117312;28;20040;-74
2023/03/06 05:15:21;;;;;;;8.50;3.90;;;3.90;92.50;;;;;;5099446;28;20088;-74
2023/03/06 05:17:47;;;;;;;11.25;4.68;;;3.90;92.60;;;;;;5116281;28;20044;-73
2023/03/06 05:20:13;;;;;;;10.30;4.03;;;3.90;92.70;;;;;;5116371;28;20039;-74
2023/03/06 05:22:39;;;;;;;9.30;4.63;;;3.90;92.60;;;;;;5117213;28;20041;-74
2023/03/06 05:25:06;;;;;;;5.90;2.83;;;3.90;93.10;;;;;;5117196;28;20020;-74
2023/03/06 05:27:32;;;;;;;10.45;4.05;;;3.80;93.20;;;;;;5117141;28;20024;-74
2023/03/06 05:29:57;;;;;;;8.32;3.70;;;3.70;93.60;;;;;;5117097;28;20027;-74
2023/03/06 05:32:23;;;;;;;8.20;3.90;;;3.70;93.70;;;;;;5116982;28;20535;-74
2023/03/06 05:34:49;;;;;;;9.32;3.55;;;3.80;93.50;;;;;;5116776;28;20044;-74
2023/03/06 05:37:15;;;;;;;9.13;3.88;;;3.80;93.30;;;;;;5117026;28;20050;-74
2023/03/06 05:39:41;;;;;;;9.90;3.83;;;3.90;93.20;;;;;;5115858;28;20028;-74
2023/03/06 05:42:06;;;;;;;9.90;4.13;;;3.90;93.60;;;;;;5116839;28;20055;-74
2023/03/06 05:44:33;;;;;;;9.63;3.47;;;3.90;93.50;;;;;;5116739;28;20024;-74
2023/03/06 05:46:59;;;;;;;11.35;3.67;;;3.90;93.30;;;;;;5116737;28;20028;-74
2023/03/06 05:49:25;;;;;;;9.73;4.47;;;3.90;93.20;;;;;;5116676;28;20038;-74
2023/03/06 05:51:51;;;;;;;12.55;4.13;;;3.90;93.50;;;;;;5116586;28;20024;-74
2023/03/06 05:54:16;;;;;;;12.65;3.65;;;3.90;93.30;;;;;;5116571;28;20050;-74
2023/03/06 05:56:42;;;;;;;8.52;3.90;;;3.90;93.40;;;;;;5116552;28;20030;-74
2023/03/06 05:59:08;;;;;;;10.60;4.30;;;3.90;93.40;;;;;;5116449;28;20080;-74
2023/03/06 06:01:33;;;;;;;9.75;3.47;;;3.90;93.50;;;;;;5116463;28;20039;-74
2023/03/06 06:03:59;;;;;;;12.45;4.18;;;3.90;93.70;;;;;;5116443;28;20036;-74
2023/03/06 06:06:24;;;;;;;11.52;3.85;;;3.90;93.70;;;;;;5116328;28;20055;-74
2023/03/06 06:08:50;;;;;;;12.80;4.65;;;3.90;93.90;;;;;;5116240;28;20032;-74
2023/03/06 06:11:17;;;;;;;13.95;4.68;;;3.90;93.80;;;;;;5115184;28;20031;-73
2023/03/06 06:13:43;;;;;;;13.65;4.65;;;3.90;93.80;;;;;;5116269;28;20016;-74
2023/03/06 06:16:18;;;;;;;14.85;4.65;;;4.00;93.70;;;;;;5115297;28;20106;-74
2023/03/06 06:18:44;;;;;;;15.43;4.35;;;4.00;93.80;;;;;;5116148;28;20042;-74
2023/03/06 06:21:12;;;;;;;14.13;5.18;;;4.00;93.90;;;;;;5116094;28;20099;-74
2023/03/06 06:23:37;;;;;;;13.73;5.28;;;4.00;93.80;;;;;;5116079;28;20062;-74
2023/03/06 06:26:06;;;;;;;12.93;5.05;;;4.00;93.90;;;;;;5115995;28;20032;-74
2023/03/06 06:28:32;;;;;;;14.93;5.97;;;4.10;93.70;;;;;;5116108;28;20020;-74
2023/03/06 06:30:58;;;;;;;13.43;5.40;;;4.10;93.60;;;;;;5114756;28;20083;-74
2023/03/06 06:33:24;;;;;;;13.55;5.20;;;4.10;94.00;;;;;;5114695;28;20052;-74
2023/03/06 06:35:50;;;;;;;11.80;5.13;;;4.10;93.80;;;;;;5115906;28;20034;-74
2023/03/06 06:38:16;;;;;;;14.70;4.97;;;4.10;93.80;;;;;;5115722;28;20080;-74
2023/03/06 06:40:42;;;;;;;10.48;5.00;;;4.00;94.20;;;;;;5115691;28;20025;-73
2023/03/06 06:43:08;;;;;;;14.02;5.03;;;4.00;94.10;;;;;;5114753;28;20024;-74
2023/03/06 06:45:33;;;;;;;12.55;5.07;;;4.00;94.10;;;;;;5114541;28;20075;-74
2023/03/06 06:47:59;;;;;;;18.73;5.63;;;4.00;94.20;;;;;;5115479;28;20024;-74
2023/03/06 06:50:25;;;;;;;13.32;5.65;;;4.00;94.30;;;;;;5115489;28;20027;-74
2023/03/06 06:52:51;;;;;;;15.00;5.25;;;4.10;94.10;;;;;;5114442;28;20083;-74
2023/03/06 06:55:16;;;;;;;16.15;6.22;;;4.10;94.00;;;;;;5114432;28;20031;-74
2023/03/06 06:57:42;;;;;;;14.63;6.15;;;4.10;94.10;;;;;;5115424;28;20075;-74
2023/03/06 07:00:10;;;;;;;17.45;5.47;;;4.10;94.20;;;;;;5115424;28;20020;-74
2023/03/06 07:02:35;;;;;;;19.35;6.45;;;4.10;94.20;;;;;;5115159;28;20026;-74
2023/03/06 07:05:01;;;;;;;15.38;5.72;;;4.10;94.20;;;;;;5114346;28;20036;-74
2023/03/06 07:07:27;;;;;;;20.60;5.97;;;4.10;94.00;;;;;;5115083;28;20032;-73
2023/03/06 07:09:54;;;;;;;18.25;6.90;;;4.20;93.90;;;;;;5115047;28;20091;-74
2023/03/06 07:12:19;;;;;;;18.10;6.07;;;4.20;93.90;;;;;;5114984;28;20032;-74
2023/03/06 07:14:45;;;;;;;18.55;6.25;;;4.30;93.80;;;;;;5115031;28;20122;-74
2023/03/06 07:17:11;;;;;;;16.90;6.30;;;4.40;93.80;;;;;;5114081;28;20043;-74
2023/03/06 07:19:36;;;;;;;16.33;5.80;;;4.40;93.70;;;;;;5114927;28;20024;-74
2023/03/06 07:22:03;;;;;;;17.30;6.63;;;4.50;93.70;;;;;;5114855;28;20032;-74
2023/03/06 07:24:29;;;;;;;14.50;6.15;;;4.50;93.70;;;;;;5114783;28;20054;-74
2023/03/06 07:26:54;;;;;;;18.05;5.50;;;4.50;93.70;;;;;;5114768;28;20024;-74
2023/03/06 07:29:21;;;;;;;16.73;6.35;;;4.40;94.10;;;;;;5114792;28;20059;-73
2023/03/06 07:31:46;;;;;;;14.80;5.32;;;4.50;93.70;;;;;;5114644;28;20063;-73
2023/03/06 07:34:13;;;;;;;14.07;5.72;;;4.40;93.80;;;;;;5114481;28;20131;-73
2023/03/06 07:36:39;;;;;;;18.63;6.22;;;4.40;93.80;;;;;;5113531;28;20012;-73
2023/03/06 07:39:08;;;;;;;14.15;5.53;;;4.50;93.90;;;;;;5114498;28;20042;-74
2023/03/06 07:41:34;;;;;;;18.50;5.63;;;4.50;94.00;;;;;;5113624;28;20088;-74
2023/03/06 07:44:00;;;;;;;16.92;5.82;;;4.50;94.00;;;;;;5113603;28;20032;-74
2023/03/06 07:46:26;;;;;;;17.35;6.43;;;4.50;94.00;;;;;;5114378;28;20020;-74
2023/03/06 07:48:51;;;;;;;16.45;5.97;;;4.50;94.10;;;;;;5113437;28;20055;-74
2023/03/06 07:51:19;;;;;;;16.45;6.60;;;4.60;94.20;;;;;;5114235;28;20047;-74
2023/03/06 07:53:46;;;;;;;13.65;5.40;;;4.60;94.30;;;;;;5114268;28;20414;-74
2023/03/06 07:56:12;;;;;;;18.08;6.15;;;4.50;94.30;;;;;;5114293;28;20026;-74
2023/03/06 07:58:40;;;;;;;16.63;6.28;;;4.60;94.40;;;;;;5113349;28;20028;-74
2023/03/06 08:01:08;;;;;;;16.38;5.68;;;4.60;94.80;;;;;;5114186;28;20050;-74
2023/03/06 08:03:33;;;;;;;15.57;6.38;;;4.60;94.50;;;;;;5114125;28;20086;-73
2023/03/06 08:06:10;;;;;;;16.25;6.28;;;4.60;94.50;;;;;;5114083;28;20465;-74
2023/03/06 08:08:39;;;;;;;15.70;6.07;;;4.70;94.70;;;;;;5113975;28;20020;-74
2023/03/06 08:11:06;;;;;;;17.38;6.50;;;4.70;94.70;;;;;;5113911;28;20024;-74
2023/03/06 08:13:32;;;;;;;18.33;6.18;;;4.80;94.70;;;;;;5113986;28;20031;-74
2023/03/06 08:15:58;;;;;;;16.40;6.38;;;4.80;94.60;;;;;;5113881;28;20013;-75
2023/03/06 08:18:25;;;;;;;17.58;6.95;;;4.80;94.60;;;;;;5113778;28;20027;-74
2023/03/06 08:20:59;;;;;;;19.67;7.47;;;4.90;94.60;;;;;;5112973;28;20425;-74
2023/03/06 08:23:25;;;;;;;19.23;6.18;;;4.90;94.70;;;;;;5113839;28;20050;-74
2023/03/06 08:26:05;;;;;;;15.90;5.63;;;4.90;94.70;;;;;;5113796;28;20052;-74
2023/03/06 08:28:31;;;;;;;19.55;6.00;;;4.90;94.70;;;;;;5113795;28;20016;-74
2023/03/06 08:31:05;;;;;;;15.93;6.38;;;5.00;94.80;;;;;;5112603;28;20028;-74
2023/03/06 08:33:31;;;;;;;16.92;5.72;;;5.00;94.80;;;;;;5113573;28;20046;-74
2023/03/06 08:35:57;;;;;;;21.33;6.28;;;5.10;94.80;;;;;;5112763;28;20453;-74
2023/03/06 08:38:22;;;;;;;20.30;7.03;;;5.10;94.70;;;;;;5113359;28;20053;-74
2023/03/06 08:40:48;;;;;;;13.68;5.53;;;5.10;94.70;;;;;;5113349;28;20026;-74
2023/03/06 08:43:13;;;;;;;15.25;5.68;;;5.10;94.80;;;;;;5113510;28;20039;-75
2023/03/06 08:45:39;;;;;;;15.60;6.05;;;5.10;94.60;;;;;;5113406;28;20024;-74
2023/03/06 08:48:05;;;;;;;18.08;5.95;;;5.20;94.50;;;;;;5113447;28;20535;-75
2023/03/06 08:50:30;;;;;;;15.05;5.47;;;5.20;94.60;;;;;;5112470;28;20047;-76
2023/03/06 08:52:57;;;;;;;17.50;6.13;;;5.30;94.50;;;;;;5113328;28;20032;-75
2023/03/06 08:55:23;;;;;;;16.58;6.20;;;5.30;94.40;;;;;;5113454;28;20016;-75
2023/03/06 08:57:48;;;;;;;15.48;6.00;;;5.30;94.40;;;;;;5113389;28;20112;-75
2023/03/06 09:00:14;;;;;;;17.30;6.03;;;5.40;94.20;;;;;;5112637;28;20024;-75
2023/03/06 09:02:40;;;;;;;13.95;5.55;;;5.50;94.20;;;;;;5113419;28;20036;-75
2023/03/06 09:05:07;;;;;;;13.95;5.68;;;5.60;94.30;;;;;;5113349;28;20463;-75
2023/03/06 09:07:34;;;;;;;12.13;5.40;;;5.70;94.30;;;;;;5113380;28;20020;-75
2023/03/06 09:09:59;;;;;;;11.35;4.57;;;5.80;94.20;;;;;;5095271;28;20032;-75
2023/03/06 09:12:25;;;;;;;12.18;4.43;;;6.00;93.30;;;;;;5113209;28;20039;-75
2023/03/06 09:14:51;;;;;;;12.68;5.28;;;6.10;93.30;;;;;;5113283;28;20082;-75
2023/03/06 09:17:17;;;;;;;10.90;4.60;;;6.20;93.30;;;;;;5113272;28;20016;-75
2023/03/06 09:19:43;;;;;;;11.65;4.90;;;6.30;93.10;;;;;;5113215;28;20052;-75
2023/03/06 09:22:08;;;;;;;12.80;5.13;;;6.40;92.70;;;;;;5113192;28;20028;-75
2023/03/06 09:24:34;;;;;;;11.30;4.55;;;6.50;92.50;;;;;;5113168;28;20055;-75
2023/03/06 09:27:00;;;;;;;7.72;3.47;;;6.50;92.40;;;;;;5113157;28;20028;-75
2023/03/06 09:29:26;;;;;;;5.65;2.92;;;6.50;91.70;;;;;;5095331;28;20024;-75
2023/03/06 09:31:52;;;;;;;6.93;3.30;;;6.50;90.80;;;;;;5112091;28;20050;-75
2023/03/06 09:34:17;;;;;;;7.75;3.20;;;6.40;90.90;;;;;;5112866;28;20055;-75
2023/03/06 09:36:43;;;;;;;5.70;2.80;;;6.40;91.40;;;;;;5112062;28;20036;-75
2023/03/06 09:39:09;;;;;;;5.75;2.78;;;6.50;91.30;;;;;;5113178;28;20021;-75
2023/03/06 09:41:37;;;;;;;6.35;2.97;;;6.70;90.80;;;;;;5112072;28;20035;-75
2023/03/06 09:44:07;;;;;;;6.80;3.58;;;6.80;90.60;;;;;;5113062;28;20078;-75
2023/03/06 09:46:54;;;;;;;7.72;3.60;;;6.90;89.30;;;;;;5113037;28;20039;-75
2023/03/06 09:49:50;;;;;;;5.80;3.08;;;6.90;88.70;;;;;;5113024;28;20050;-75
2023/03/06 09:52:33;;;;;;;5.38;3.08;;;7.00;88.70;;;;;;5115624;28;20516;-75
2023/03/06 09:55:12;;;;;;;4.80;2.20;;;7.00;88.90;;;;;;5116831;28;20031;-74
2023/03/06 09:57:55;;;;;;;3.33;1.92;;;7.10;87.70;;;;;;5116749;28;20023;-75
2023/03/06 10:01:13;;;;;;;2.85;1.70;;;7.10;87.30;;;;;;5116698;28;20103;-75
2023/03/06 10:04:01;;;;;;;4.35;1.90;;;7.30;85.70;;;;;;5107425;28;20032;-75
2023/03/06 10:06:52;;;;;;;2.58;1.80;;;7.40;84.40;;;;;;5116577;28;20019;-75
2023/03/06 10:09:38;;;;;;;2.40;1.45;;;7.50;85.20;;;;;;5116293;28;20020;-75
2023/03/06 10:12:15;;;;;;;3.25;1.90;;;7.50;81.60;;;;;;5116251;28;20036;-75
2023/03/06 10:14:45;;;;;;;4.63;2.00;;;7.40;83.20;;;;;;5116288;28;20023;-75
2023/03/06 10:17:22;;;;;;;5.40;2.10;;;7.50;84.50;;;;;;5115410;28;20103;-75
2023/03/06 10:19:48;;;;;;;3.63;2.25;;;7.60;83.00;;;;;;5116187;28;20024;-75
2023/03/06 10:22:36;;;;;;;4.97;1.98;;;7.70;83.50;;;;;;5116024;28;20029;-75
2023/03/06 10:25:01;;;;;;;1.88;1.33;;;7.70;82.90;;;;;;5115313;28;20028;-75
2023/03/06 10:27:36;;;;;;;2.17;1.27;;;7.70;81.20;;;;;;5116057;28;20050;-75
2023/03/06 10:30:39;;;;;;;1.80;1.08;;;7.70;81.20;;;;;;5115914;28;20028;-75
2023/03/06 10:33:20;;;;;;;3.50;1.65;;;7.80;80.40;;;;;;5115788;28;20028;-75
2023/03/06 10:35:48;;;;;;;2.53;1.33;;;7.90;80.40;;;;;;5115892;28;20024;-75
2023/03/06 10:38:20;;;;;;;2.92;1.70;;;7.90;78.50;;;;;;5115603;28;20024;-75
2023/03/06 10:41:04;;;;;;;3.70;1.88;;;7.90;77.30;;;;;;5114498;28;20027;-75
2023/03/06 10:43:30;;;;;;;2.83;1.50;;;7.90;78.10;;;;;;5115541;28;20020;-75
2023/03/06 10:45:55;;;;;;;3.65;1.85;;;8.00;78.20;;;;;;5114535;28;20031;-75
2023/03/06 10:48:24;;;;;;;2.85;1.50;;;8.00;78.40;;;;;;5115379;28;20039;-75
2023/03/06 10:50:50;;;;;;;2.13;1.30;;;8.10;78.80;;;;;;5114344;28;20020;-75
2023/03/06 10:53:25;;;;;;;2.65;1.63;;;8.30;78.90;;;;;;5115389;28;20487;-75
2023/03/06 10:55:57;;;;;;;2.22;1.40;;;8.50;77.90;;;;;;5115501;28;20099;-75
2023/03/06 10:58:27;;;;;;;3.30;1.88;;;8.60;76.50;;;;;;5115408;28;20024;-75
2023/03/06 11:00:59;;;;;;;2.80;1.73;;;8.60;75.50;;;;;;5114395;28;20085;-74
2023/03/06 11:03:25;;;;;;;;;;;8.40;74.70;;;;;;5114284;28;20024;-74
2023/03/06 11:06:03;;;;;;;2.58;1.38;;;8.30;74.40;;;;;;5115280;28;19944;-74
2023/03/06 11:08:29;;;;;;;2.70;1.17;;;8.10;75.80;;;;;;5115136;28;20028;-74
2023/03/06 11:10:58;;;;;;;2.42;1.38;;;8.10;76.50;;;;;;5115095;28;20019;-75
2023/03/06 11:13:27;;;;;;;2.30;1.10;;;8.10;76.50;;;;;;5115096;28;20020;-75
2023/03/06 11:16:16;;;;;;;2.53;1.40;;;8.10;75.00;;;;;;5115044;28;20016;-75
2023/03/06 11:18:57;;;;;;;3.80;2.00;;;8.20;74.30;;;;;;5114965;28;20016;-75
2023/03/06 11:21:34;;;;;;;3.42;1.85;;;8.30;75.80;;;;;;5114985;28;20024;-75
2023/03/06 11:24:13;;;;;;;4.90;2.40;;;8.30;74.80;;;;;;5114880;28;20020;-75
2023/03/06 11:27:02;;;;;;;3.30;1.80;;;8.30;74.80;;;;;;5114830;28;20028;-75
2023/03/06 11:29:41;;;;;;;3.20;1.80;;;8.20;74.00;;;;;;5114847;28;20050;-74
2023/03/06 11:32:21;;;;;;;3.50;2.10;;;8.10;73.70;;;;;;5114717;28;20039;-74
2023/03/06 11:35:19;;;;;;;4.13;2.40;;;8.00;73.50;;;;;;5114485;28;20058;-75
2023/03/06 11:37:57;;;;;;;4.18;1.92;;;8.00;74.90;;;;;;5114563;28;20024;-75
2023/03/06 11:40:45;;;;;;;2.90;1.45;;;8.00;75.80;;;;;;5114619;28;20021;-75
2023/03/06 11:43:33;;;;;;;2.78;1.48;;;8.10;75.70;;;;;;5114512;28;20027;-75
2023/03/06 11:46:21;;;;;;;4.72;1.83;;;8.10;76.60;;;;;;5114654;28;20084;-74
2023/03/06 11:48:52;;;;;;;3.78;1.85;;;8.20;76.80;;;;;;5114465;28;20048;-75
2023/03/06 11:51:25;;;;;;;3.63;2.00;;;8.20;76.00;;;;;;5114340;28;20028;-75
2023/03/06 11:53:59;;;;;;;2.78;1.80;;;8.30;76.20;;;;;;5114338;28;20013;-75
2023/03/06 11:56:34;;;;;;;3.17;1.40;;;8.20;75.00;;;;;;5114327;28;20028;-75
2023/03/06 11:59:10;;;;;;;2.75;1.50;;;8.20;75.10;;;;;;5114241;28;20032;-75
2023/03/06 12:01:38;;;;;;;2.67;1.67;;;8.20;74.90;;;;;;5114375;28;20046;-75
2023/03/06 12:04:22;;;;;;;2.88;1.45;;;8.20;75.40;;;;;;5114111;28;20031;-75
2023/03/06 12:07:10;;;;;;;3.00;1.83;;;8.20;75.40;;;;;;5114111;28;20031;-75
2023/03/06 12:10:05;;;;;;;4.75;2.00;;;8.20;75.80;;;;;;5112951;28;20031;-75
2023/03/06 12:12:49;;;;;;;5.30;2.33;;;8.20;76.30;;;;;;5075849;28;20052;-75
2023/03/06 12:15:45;;;;;;;5.38;2.30;;;8.20;76.50;;;;;;5113332;28;20028;-76
2023/03/06 12:18:20;;;;;;;4.38;2.70;;;8.20;76.70;;;;;;5113944;28;20099;-74
2023/03/06 12:20:55;;;;;;;4.78;2.42;;;8.20;76.80;;;;;;5113985;28;20024;-75
2023/03/06 12:23:54;;;;;;;4.90;2.55;;;8.30;77.10;;;;;;5113879;28;20020;-75
2023/03/06 12:26:31;;;;;;;5.50;2.50;;;8.40;77.30;;;;;;5113751;28;20020;-75
2023/03/06 12:29:12;;;;;;;4.38;2.40;;;8.50;77.20;;;;;;5112864;28;20035;-75
2023/03/06 12:32:15;;;;;;;6.28;2.53;;;8.70;77.40;;;;;;5113806;28;20054;-74
2023/03/06 12:35:11;;;;;;;4.90;2.63;;;8.90;75.60;;;;;;5113494;28;20048;-74
2023/03/06 12:37:46;;;;;;;5.25;2.30;;;9.10;76.20;;;;;;5113021;28;20036;-74
2023/03/06 12:40:26;;;;;;;3.50;1.90;;;9.20;75.80;;;;;;5113823;28;20028;-75
2023/03/06 12:43:19;;;;;;;4.93;2.33;;;9.40;75.40;;;;;;5113614;28;20020;-75
2023/03/06 12:45:46;;;;;;;3.80;2.33;;;9.40;73.50;;;;;;5113555;28;20033;-74
2023/03/06 12:48:24;;;;;;;5.10;2.47;;;9.50;74.20;;;;;;5113589;28;20021;-75
2023/03/06 12:50:50;;;;;;;4.40;2.45;;;9.50;74.30;;;;;;5113632;28;20034;-75
2023/03/06 12:53:26;;;;;;;4.43;2.47;;;9.60;72.30;;;;;;5113394;28;20078;-75
2023/03/06 12:55:53;;;;;;;4.32;2.53;;;9.50;71.50;;;;;;5113512;28;20090;-74
2023/03/06 12:58:30;;;;;;;6.25;2.70;;;9.50;71.50;;;;;;5113416;28;20024;-75
2023/03/06 13:01:00;;;;;;;5.85;2.92;;;9.40;71.70;;;;;;5113381;28;20032;-75
2023/03/06 13:04:37;;;;;;;4.38;2.60;;;9.40;72.20;;;;;;5112430;28;20050;-75
2023/03/06 13:07:35;;;;;;;6.75;3.28;;;9.30;71.60;;;;;;4999393;28;20089;-76